createdAt,value
2022-08-20T00:00:23.871Z,5.68
2022-08-20T00:02:56.310Z,4.93
2022-08-20T00:05:28.268Z,5.05
2022-08-20T00:07:59.067Z,5.00
2022-08-20T00:10:29.233Z,4.72
2022-08-20T00:13:00.246Z,4.97
2022-08-20T00:15:32.396Z,5.20
2022-08-20T00:18:02.153Z,5.75
2022-08-20T00:20:41.563Z,4.85
2022-08-20T00:23:11.156Z,4.95
2022-08-20T00:25:40.993Z,4.63
2022-08-20T00:28:13.257Z,4.80
2022-08-20T00:30:44.557Z,5.03
2022-08-20T00:33:17.727Z,6.60
2022-08-20T00:35:49.911Z,5.80
2022-08-20T00:38:19.546Z,4.78
2022-08-20T00:40:53.014Z,5.60
2022-08-20T00:43:36.996Z,4.95
2022-08-20T00:46:09.585Z,5.32
2022-08-20T00:48:42.037Z,4.95
2022-08-20T00:51:16.253Z,5.97
2022-08-20T00:53:45.965Z,5.70
2022-08-20T00:56:15.332Z,5.63
2022-08-20T00:58:47.493Z,5.38
2022-08-20T01:01:17.144Z,5.93
2022-08-20T01:03:47.019Z,6.30
2022-08-20T01:06:16.417Z,5.68
2022-08-20T01:08:45.607Z,5.85
2022-08-20T01:11:16.709Z,5.75
2022-08-20T01:13:48.236Z,5.50
2022-08-20T01:16:23.446Z,5.88
2022-08-20T01:18:53.668Z,5.90
2022-08-20T01:21:25.947Z,5.20
2022-08-20T01:24:01.047Z,5.13
2022-08-20T01:29:56.616Z,5.22
2022-08-20T01:32:25.796Z,5.35
2022-08-20T01:34:54.850Z,5.95
2022-08-20T01:37:28.670Z,6.10
2022-08-20T01:40:00.850Z,5.80
2022-08-20T01:42:37.682Z,5.68
2022-08-20T01:45:28.176Z,5.55
2022-08-20T01:47:59.588Z,5.80
2022-08-20T01:50:34.500Z,5.28
2022-08-20T01:53:09.707Z,5.88
2022-08-20T01:55:39.665Z,5.65
2022-08-20T01:58:10.338Z,5.85
2022-08-20T02:00:40.111Z,6.15
2022-08-20T02:03:09.386Z,6.40
2022-08-20T02:05:38.557Z,6.00
2022-08-20T02:08:07.887Z,5.78
2022-08-20T02:10:37.903Z,5.35
2022-08-20T02:13:10.236Z,5.95
2022-08-20T02:15:43.165Z,5.70
2022-08-20T02:18:17.172Z,6.30
2022-08-20T02:20:47.417Z,6.15
2022-08-20T02:23:17.037Z,5.32
2022-08-20T02:25:47.729Z,5.88
2022-08-20T02:28:19.694Z,6.40
2022-08-20T02:30:55.481Z,6.05
2022-08-20T02:33:25.728Z,6.32
2022-08-20T02:35:57.170Z,6.30
2022-08-20T02:38:26.995Z,6.18
2022-08-20T02:40:56.576Z,6.25
2022-08-20T02:43:25.866Z,5.55
2022-08-20T02:45:56.418Z,5.55
2022-08-20T02:48:25.677Z,5.90
2022-08-20T02:50:58.197Z,5.82
2022-08-20T02:53:30.727Z,6.25
2022-08-20T02:56:00.071Z,6.13
2022-08-20T02:58:29.403Z,6.10
2022-08-20T03:01:00.102Z,6.00
2022-08-20T03:03:29.557Z,5.90
2022-08-20T03:06:01.276Z,6.28
2022-08-20T03:08:31.356Z,6.40
2022-08-20T03:11:00.738Z,6.53
2022-08-20T03:13:30.017Z,6.50
2022-08-20T03:16:02.770Z,6.22
2022-08-20T03:18:38.456Z,6.72
2022-08-20T03:21:09.846Z,6.63
2022-08-20T03:23:40.375Z,6.15
2022-08-20T03:26:11.416Z,6.10
2022-08-20T03:28:40.966Z,6.47
2022-08-20T03:31:14.793Z,6.30
2022-08-20T03:33:52.781Z,6.40
2022-08-20T03:36:28.404Z,6.63
2022-08-20T03:38:59.789Z,6.40
2022-08-20T03:41:29.359Z,6.43
2022-08-20T03:43:58.624Z,6.50
2022-08-20T03:46:29.336Z,6.80
2022-08-20T03:49:00.681Z,6.22
2022-08-20T03:51:30.852Z,6.90
2022-08-20T03:54:00.914Z,6.78
2022-08-20T03:56:30.358Z,6.80
2022-08-20T03:58:59.616Z,6.13
2022-08-20T04:01:44.762Z,6.88
2022-08-20T04:04:16.222Z,6.82
2022-08-20T04:06:47.791Z,6.07
2022-08-20T04:09:17.472Z,6.40
2022-08-20T04:11:46.777Z,6.88
2022-08-20T04:14:18.561Z,6.47
2022-08-20T04:16:50.317Z,7.07
2022-08-20T04:19:21.116Z,6.68
2022-08-20T04:21:50.896Z,6.82
2022-08-20T04:24:22.815Z,6.53
2022-08-20T04:27:05.381Z,6.50
2022-08-20T04:29:35.580Z,6.40
2022-08-20T04:32:07.491Z,6.00
2022-08-20T04:34:37.355Z,6.72
2022-08-20T04:37:16.831Z,6.90
2022-08-20T04:40:06.957Z,6.88
2022-08-20T04:42:38.293Z,6.43
2022-08-20T04:45:10.063Z,7.15
2022-08-20T04:47:41.927Z,6.47
2022-08-20T04:50:12.617Z,6.65
2022-08-20T04:52:42.234Z,6.85
2022-08-20T04:55:12.267Z,6.28
2022-08-20T04:57:41.626Z,6.35
2022-08-20T05:00:15.538Z,7.68
2022-08-20T05:02:46.734Z,7.28
2022-08-20T05:05:16.164Z,7.07
2022-08-20T05:07:47.332Z,7.72
2022-08-20T05:10:18.856Z,7.80
2022-08-20T05:12:56.674Z,7.95
2022-08-20T05:15:27.566Z,6.90
2022-08-20T05:18:00.993Z,7.22
2022-08-20T05:20:32.853Z,7.53
2022-08-20T05:23:04.018Z,7.75
2022-08-20T05:25:33.364Z,6.93
2022-08-20T05:28:09.742Z,6.97
2022-08-20T05:30:40.722Z,6.75
2022-08-20T05:33:14.345Z,7.30
2022-08-20T05:35:44.111Z,6.85
2022-08-20T05:38:16.392Z,6.75
2022-08-20T05:40:46.634Z,7.28
2022-08-20T05:43:16.315Z,6.32
2022-08-20T05:45:46.566Z,6.97
2022-08-20T05:48:19.541Z,7.57
2022-08-20T05:50:50.742Z,7.10
2022-08-20T05:53:20.774Z,6.95
2022-08-20T05:55:50.302Z,7.38
2022-08-20T05:58:22.752Z,6.95
2022-08-20T06:00:54.078Z,7.00
2022-08-20T06:03:42.246Z,7.82
2022-08-20T06:06:18.002Z,7.07
2022-08-20T06:09:01.775Z,6.70
2022-08-20T06:11:35.138Z,6.38
2022-08-20T06:14:06.567Z,7.68
2022-08-20T06:16:37.079Z,7.07
2022-08-20T06:19:11.352Z,7.35
2022-08-20T06:21:41.584Z,7.82
2022-08-20T06:24:11.584Z,8.43
2022-08-20T06:26:41.066Z,9.45
2022-08-20T06:29:10.438Z,8.57
2022-08-20T06:31:40.999Z,8.30
2022-08-20T06:34:12.101Z,7.80
2022-08-20T06:36:41.599Z,7.20
2022-08-20T06:39:11.221Z,9.93
2022-08-20T06:41:41.112Z,7.95
2022-08-20T06:44:11.590Z,7.60
2022-08-20T06:46:41.471Z,8.00
2022-08-20T06:49:13.311Z,10.45
2022-08-20T06:51:43.291Z,7.15
2022-08-20T06:54:12.964Z,7.45
2022-08-20T06:56:44.488Z,7.55
2022-08-20T06:59:13.821Z,7.07
2022-08-20T07:01:43.262Z,6.72
2022-08-20T07:04:16.063Z,7.50
2022-08-20T07:06:45.559Z,6.68
2022-08-20T07:09:14.969Z,6.70
2022-08-20T07:11:44.480Z,7.15
2022-08-20T07:14:13.969Z,7.28
2022-08-20T07:16:44.079Z,7.20
2022-08-20T07:19:15.661Z,8.80
2022-08-20T07:21:45.554Z,6.95
2022-08-20T07:24:15.038Z,8.05
2022-08-20T07:26:44.579Z,7.25
2022-08-20T07:29:14.088Z,7.45
2022-08-20T07:32:00.900Z,7.07
2022-08-20T07:34:32.119Z,6.55
2022-08-20T07:37:02.200Z,7.35
2022-08-20T07:39:31.772Z,7.22
2022-08-20T07:42:04.632Z,7.20
2022-08-20T07:44:34.192Z,7.00
2022-08-20T07:47:05.038Z,7.40
2022-08-20T07:49:39.908Z,6.75
2022-08-20T07:52:09.459Z,6.93
2022-08-20T07:54:39.714Z,7.35
2022-08-20T07:57:10.319Z,7.47
2022-08-20T07:59:41.579Z,6.45
2022-08-20T08:02:10.892Z,7.05
2022-08-20T08:04:41.864Z,6.90
2022-08-20T08:07:11.272Z,6.90
2022-08-20T08:09:41.023Z,7.32
2022-08-20T08:12:10.544Z,6.43
2022-08-20T08:14:41.084Z,6.38
2022-08-20T08:17:11.775Z,6.80
2022-08-20T08:19:49.355Z,6.50
2022-08-20T08:22:20.954Z,6.70
2022-08-20T08:24:57.689Z,6.35
2022-08-20T08:27:27.455Z,7.22
2022-08-20T08:29:56.963Z,6.50
2022-08-20T08:32:26.502Z,6.43
2022-08-20T08:34:59.286Z,6.43
2022-08-20T08:37:30.999Z,6.55
2022-08-20T08:40:01.738Z,6.25
2022-08-20T08:42:43.422Z,19.75
2022-08-20T08:45:16.386Z,7.38
2022-08-20T08:47:47.264Z,6.22
2022-08-20T08:50:38.591Z,6.25
2022-08-20T08:53:20.680Z,6.32
2022-08-20T08:55:50.662Z,6.38
2022-08-20T08:58:20.113Z,5.95
2022-08-20T09:00:57.702Z,6.00
2022-08-20T09:03:34.866Z,5.90
2022-08-20T09:06:06.646Z,6.25
2022-08-20T09:08:43.107Z,5.80
2022-08-20T09:11:12.667Z,5.38
2022-08-20T09:13:43.553Z,6.25
2022-08-20T09:16:14.047Z,5.68
2022-08-20T09:18:43.951Z,6.60
2022-08-20T09:21:16.441Z,5.90
2022-08-20T09:23:46.125Z,6.50
2022-08-20T09:26:15.872Z,5.80
2022-08-20T09:28:48.859Z,6.47
2022-08-20T09:31:21.255Z,5.65
2022-08-20T09:33:52.606Z,6.07
2022-08-20T09:36:31.505Z,5.50
2022-08-20T09:39:02.827Z,5.68
2022-08-20T09:41:34.307Z,5.65
2022-08-20T09:44:04.059Z,6.20
2022-08-20T09:46:33.466Z,13.88
2022-08-20T09:49:02.834Z,6.20
2022-08-20T09:51:34.439Z,5.93
2022-08-20T09:54:08.268Z,6.05
2022-08-20T09:56:37.838Z,6.07
2022-08-20T09:59:07.496Z,6.05
2022-08-20T10:01:37.152Z,6.40
2022-08-20T10:04:06.732Z,5.35
2022-08-20T10:06:41.648Z,5.75
2022-08-20T10:09:11.319Z,5.85
2022-08-20T10:11:41.007Z,4.85
2022-08-20T10:14:10.580Z,5.13
2022-08-20T10:16:40.146Z,5.53
2022-08-20T10:19:09.485Z,5.32
2022-08-20T10:21:40.373Z,5.30
2022-08-20T10:24:09.835Z,5.05
2022-08-20T10:26:40.164Z,5.25
2022-08-20T10:29:09.524Z,5.03
2022-08-20T10:31:39.227Z,5.28
2022-08-20T10:34:09.405Z,5.72
2022-08-20T10:36:40.489Z,5.13
2022-08-20T10:39:10.074Z,5.13
2022-08-20T10:41:39.961Z,5.57
2022-08-20T10:44:09.995Z,5.90
2022-08-20T10:46:39.375Z,5.47
2022-08-20T10:49:08.583Z,5.13
2022-08-20T10:51:38.295Z,4.93
2022-08-20T10:54:12.355Z,5.30
2022-08-20T10:56:42.983Z,5.18
2022-08-20T10:59:13.294Z,5.15
2022-08-20T11:01:43.382Z,5.65
2022-08-20T11:04:13.362Z,5.60
2022-08-20T11:06:43.242Z,5.38
2022-08-20T11:09:14.362Z,5.22
2022-08-20T11:11:44.162Z,4.82
2022-08-20T11:14:13.622Z,5.95
2022-08-20T11:16:43.068Z,5.88
2022-08-20T11:19:12.698Z,5.20
2022-08-20T11:21:42.308Z,5.40
2022-08-20T11:24:11.889Z,5.07
2022-08-20T11:26:42.983Z,4.97
2022-08-20T11:29:12.371Z,5.60
2022-08-20T11:31:42.111Z,5.68
2022-08-20T11:34:12.896Z,4.85
2022-08-20T11:36:43.168Z,5.90
2022-08-20T11:39:12.727Z,5.47
2022-08-20T11:41:45.727Z,5.22
2022-08-20T11:44:20.650Z,5.70
2022-08-20T11:46:51.102Z,5.72
2022-08-20T11:49:20.559Z,5.80
2022-08-20T11:51:50.351Z,5.63
2022-08-20T11:54:20.059Z,4.90
2022-08-20T11:56:52.038Z,6.00
2022-08-20T11:59:21.431Z,5.47
2022-08-20T12:02:03.315Z,5.68
2022-08-20T12:04:33.400Z,5.18
2022-08-20T12:07:11.112Z,4.95
2022-08-20T12:09:50.301Z,5.07
2022-08-20T12:12:24.310Z,5.50
2022-08-20T12:14:54.413Z,5.28
2022-08-20T12:17:28.182Z,5.28
2022-08-20T12:20:00.021Z,5.40
2022-08-20T12:22:29.662Z,5.00
2022-08-20T12:24:59.285Z,5.85
2022-08-20T12:27:32.164Z,5.75
2022-08-20T12:30:03.782Z,5.30
2022-08-20T12:32:34.702Z,5.57
2022-08-20T12:35:05.702Z,5.18
2022-08-20T12:37:36.257Z,5.53
2022-08-20T12:40:09.843Z,5.53
2022-08-20T12:42:41.056Z,5.25
2022-08-20T12:45:11.606Z,5.93
2022-08-20T12:47:44.851Z,5.22
2022-08-20T12:50:16.894Z,5.30
2022-08-20T12:52:46.636Z,4.95
2022-08-20T12:55:17.874Z,5.45
2022-08-20T12:57:51.321Z,5.90
2022-08-20T13:00:23.734Z,5.07
2022-08-20T13:02:55.851Z,5.38
2022-08-20T13:05:26.848Z,5.80
2022-08-20T13:07:56.325Z,5.03
2022-08-20T13:10:28.478Z,5.80
2022-08-20T13:12:59.680Z,4.90
2022-08-20T13:15:29.138Z,5.45
2022-08-20T13:18:00.668Z,5.35
2022-08-20T13:20:34.609Z,5.30
2022-08-20T13:23:05.058Z,5.40
2022-08-20T13:25:34.658Z,5.78
2022-08-20T13:28:07.109Z,5.70
2022-08-20T13:30:39.059Z,5.00
2022-08-20T13:33:08.598Z,5.28
2022-08-20T13:35:38.046Z,5.80
2022-08-20T13:38:07.759Z,5.03
2022-08-20T13:40:37.261Z,5.28
2022-08-20T13:43:08.181Z,5.80
2022-08-20T13:45:42.441Z,5.65
2022-08-20T13:48:14.520Z,4.85
2022-08-20T13:50:47.131Z,5.15
2022-08-20T13:53:18.401Z,5.22
2022-08-20T13:55:48.730Z,5.78
2022-08-20T13:58:20.157Z,5.35
2022-08-20T14:00:50.102Z,5.10
2022-08-20T14:03:25.530Z,8.95
2022-08-20T14:05:55.577Z,5.28
2022-08-20T14:08:26.858Z,5.07
2022-08-20T14:10:57.698Z,5.55
2022-08-20T14:13:29.607Z,5.32
2022-08-20T14:15:59.159Z,4.70
2022-08-20T14:18:28.871Z,5.13
2022-08-20T14:20:58.918Z,5.68
2022-08-20T14:23:28.320Z,5.45
2022-08-20T14:25:58.102Z,5.50
2022-08-20T14:28:29.562Z,5.22
2022-08-20T14:30:59.391Z,5.28
2022-08-20T14:33:29.258Z,6.15
2022-08-20T14:35:59.116Z,5.38
2022-08-20T14:38:28.791Z,5.22
2022-08-20T14:40:58.237Z,6.50
2022-08-20T14:43:29.118Z,5.78
2022-08-20T14:45:58.620Z,5.32
2022-08-20T14:48:28.631Z,5.32
2022-08-20T14:50:59.718Z,5.18
2022-08-20T14:53:29.169Z,4.70
2022-08-20T14:55:58.550Z,4.70
2022-08-20T14:58:29.842Z,5.00
2022-08-20T15:00:59.248Z,5.38
2022-08-20T15:03:30.952Z,5.07
2022-08-20T15:06:00.911Z,5.35
2022-08-20T15:08:30.324Z,4.72
2022-08-20T15:10:59.829Z,5.45
2022-08-20T15:13:30.638Z,5.05
2022-08-20T15:16:00.074Z,5.13
2022-08-20T15:18:29.701Z,5.50
2022-08-20T15:20:58.974Z,5.50
2022-08-20T15:23:28.404Z,5.40
2022-08-20T15:25:57.593Z,5.68
2022-08-20T15:28:26.988Z,5.32
2022-08-20T15:30:57.994Z,5.70
2022-08-20T15:33:27.518Z,5.93
2022-08-20T15:35:56.842Z,5.32
2022-08-20T15:38:26.384Z,4.75
2022-08-20T15:40:55.753Z,7.53
2022-08-20T15:43:25.023Z,6.05
2022-08-20T15:45:54.964Z,5.22
2022-08-20T15:48:35.200Z,5.30
2022-08-20T15:51:19.509Z,5.32
2022-08-20T15:53:56.917Z,4.97
2022-08-20T15:56:50.869Z,5.40
2022-08-20T15:59:36.158Z,5.25
2022-08-20T16:02:15.437Z,5.00
2022-08-20T16:05:08.879Z,5.22
2022-08-20T16:07:50.469Z,5.22
2022-08-20T16:10:28.351Z,4.93
2022-08-20T16:13:02.133Z,4.97
2022-08-20T16:15:34.268Z,5.13
2022-08-20T16:18:09.746Z,5.07
2022-08-20T16:20:47.887Z,5.13
2022-08-20T16:23:21.190Z,5.03
2022-08-20T16:26:04.638Z,4.53
2022-08-20T16:28:44.659Z,4.80
2022-08-20T16:31:18.178Z,4.90
2022-08-20T16:34:03.216Z,5.05
2022-08-20T16:36:40.737Z,4.57
2022-08-20T16:39:18.716Z,5.40
2022-08-20T16:41:52.992Z,5.10
2022-08-20T16:44:31.726Z,5.18
2022-08-20T16:47:14.200Z,5.97
2022-08-20T16:49:50.703Z,5.32
2022-08-20T16:52:21.650Z,5.20
2022-08-20T16:54:51.217Z,5.50
2022-08-20T16:57:21.256Z,5.38
2022-08-20T16:59:59.873Z,5.00
2022-08-20T17:02:29.923Z,5.78
2022-08-20T17:05:04.758Z,5.63
2022-08-20T17:07:51.218Z,5.03
2022-08-20T17:10:25.303Z,5.63
2022-08-20T17:12:59.733Z,5.43
2022-08-20T17:15:31.554Z,5.50
2022-08-20T17:18:21.271Z,5.22
2022-08-20T17:20:50.931Z,5.28
2022-08-20T17:23:24.276Z,4.70
2022-08-20T17:26:00.444Z,5.00
2022-08-20T17:28:35.279Z,5.13
2022-08-20T17:31:05.215Z,4.75
2022-08-20T17:33:40.833Z,5.30
2022-08-20T17:36:12.757Z,5.43
2022-08-20T17:38:50.048Z,4.93
2022-08-20T17:41:23.270Z,4.97
2022-08-20T17:43:59.839Z,5.20
2022-08-20T17:46:32.994Z,5.10
2022-08-20T17:49:08.163Z,5.30
2022-08-20T17:51:40.872Z,4.38
2022-08-20T17:54:16.266Z,4.88
2022-08-20T17:56:46.312Z,4.88
2022-08-20T17:59:59.482Z,4.72
2022-08-20T18:02:12.742Z,4.75
2022-08-20T18:04:42.693Z,4.90
2022-08-20T18:07:18.642Z,4.63
2022-08-20T18:09:56.272Z,4.90
2022-08-20T18:12:35.142Z,4.80
2022-08-20T18:15:10.821Z,4.93
2022-08-20T18:17:56.026Z,4.43
2022-08-20T18:20:50.810Z,4.75
2022-08-20T18:23:23.170Z,4.65
2022-08-20T18:25:57.470Z,5.03
2022-08-20T18:28:37.807Z,5.43
2022-08-20T18:31:10.757Z,6.20
2022-08-20T18:33:43.690Z,4.38
2022-08-20T18:36:24.091Z,4.47
2022-08-20T18:39:01.836Z,5.13
2022-08-20T18:41:35.038Z,4.68
2022-08-20T18:44:10.631Z,5.10
2022-08-20T18:46:52.538Z,4.65
2022-08-20T18:49:30.238Z,4.80
2022-08-20T18:52:09.671Z,4.97
2022-08-20T18:54:39.796Z,4.43
2022-08-20T18:57:21.072Z,3.75
2022-08-20T18:59:57.797Z,4.38
2022-08-20T19:02:30.239Z,4.32
2022-08-20T19:05:03.053Z,4.45
2022-08-20T19:07:48.650Z,4.38
2022-08-20T19:10:35.398Z,4.60
2022-08-20T19:13:51.086Z,4.93
2022-08-20T19:16:26.225Z,4.68
2022-08-20T19:18:57.127Z,4.95
2022-08-20T19:21:31.346Z,6.10
2022-08-20T19:24:06.400Z,4.53
2022-08-20T19:26:44.337Z,5.03
2022-08-20T19:29:17.507Z,4.90
2022-08-20T19:31:47.966Z,4.68
2022-08-20T19:34:22.972Z,4.75
2022-08-20T19:36:58.771Z,4.63
2022-08-20T19:39:36.198Z,3.97
2022-08-20T19:42:14.677Z,4.57
2022-08-20T19:44:51.846Z,4.43
2022-08-20T19:47:30.819Z,4.20
2022-08-20T19:50:14.156Z,4.15
2022-08-20T19:52:57.198Z,4.90
2022-08-20T19:55:31.406Z,4.18
2022-08-20T19:58:03.879Z,4.10
2022-08-20T20:00:41.526Z,4.05
2022-08-20T20:03:12.489Z,3.88
2022-08-20T20:05:52.090Z,4.68
2022-08-20T20:08:23.149Z,4.55
2022-08-20T20:10:56.547Z,4.55
2022-08-20T20:13:29.908Z,4.18
2022-08-20T20:16:06.428Z,4.20
2022-08-20T20:18:39.428Z,4.00
2022-08-20T20:21:16.030Z,4.03
2022-08-20T20:23:55.643Z,4.00
2022-08-20T20:26:25.677Z,4.35
2022-08-20T20:29:02.348Z,4.47
2022-08-20T20:31:38.108Z,3.70
2022-08-20T20:34:13.349Z,3.83
2022-08-20T20:36:45.996Z,4.10
2022-08-20T20:39:28.878Z,3.83
2022-08-20T20:42:01.348Z,4.30
2022-08-20T20:44:37.341Z,4.20
2022-08-20T20:47:18.476Z,3.90
2022-08-20T20:49:53.910Z,4.15
2022-08-20T20:52:25.197Z,3.80
2022-08-20T20:55:10.836Z,3.70
2022-08-20T20:57:40.916Z,3.95
2022-08-20T21:00:13.726Z,4.20
2022-08-20T21:02:45.238Z,3.88
2022-08-20T21:05:17.298Z,3.70
2022-08-20T21:07:50.513Z,4.00
2022-08-20T21:10:23.399Z,4.22
2022-08-20T21:12:53.582Z,3.80
2022-08-20T21:15:26.409Z,4.40
2022-08-20T21:18:01.398Z,3.97
2022-08-20T21:20:31.513Z,4.07
2022-08-20T21:23:01.470Z,4.00
2022-08-20T21:25:33.510Z,4.47
2022-08-20T21:28:03.478Z,4.50
2022-08-20T21:30:34.253Z,3.90
2022-08-20T21:33:05.646Z,3.90
2022-08-20T21:35:35.530Z,4.10
2022-08-20T21:38:05.119Z,3.95
2022-08-20T21:40:37.014Z,3.92
2022-08-20T21:43:07.214Z,3.97
2022-08-20T21:45:37.776Z,4.47
2022-08-20T21:48:09.384Z,4.22
2022-08-20T21:50:39.193Z,4.00
2022-08-20T21:53:12.791Z,3.85
2022-08-20T21:55:43.420Z,3.95
2022-08-20T21:58:14.664Z,4.20
2022-08-20T22:00:54.860Z,3.95
2022-08-20T22:03:28.664Z,4.00
2022-08-20T22:06:01.673Z,4.10
2022-08-20T22:08:32.099Z,4.18
2022-08-20T22:11:02.125Z,4.28
2022-08-20T22:13:33.793Z,3.95
2022-08-20T22:16:05.918Z,4.03
2022-08-20T22:18:37.339Z,4.68
2022-08-20T22:21:10.259Z,4.40
2022-08-20T22:23:40.458Z,4.45
2022-08-20T22:26:10.805Z,3.83
2022-08-20T22:28:40.666Z,3.97
2022-08-20T22:31:11.086Z,3.72
2022-08-20T22:33:42.328Z,3.92
2022-08-20T22:36:12.745Z,4.00
2022-08-20T22:38:42.444Z,4.40
2022-08-20T22:41:12.008Z,3.70
2022-08-20T22:43:43.412Z,4.30
2022-08-20T22:46:29.267Z,4.07
2022-08-20T22:49:01.466Z,3.78
2022-08-20T22:51:34.713Z,4.22
2022-08-20T22:54:06.000Z,4.00
2022-08-20T22:56:36.098Z,4.80
2022-08-20T22:59:07.307Z,4.25
2022-08-20T23:01:36.997Z,4.32
2022-08-20T23:04:14.885Z,4.28
2022-08-20T23:06:44.559Z,4.15
2022-08-20T23:09:13.995Z,4.25
2022-08-20T23:11:48.340Z,4.38
2022-08-20T23:14:18.144Z,4.85
2022-08-20T23:16:49.619Z,4.25
2022-08-20T23:19:23.018Z,4.70
2022-08-20T23:21:53.059Z,4.45
2022-08-20T23:24:22.756Z,3.95
2022-08-20T23:26:53.027Z,5.18
2022-08-20T23:29:25.576Z,4.60
2022-08-20T23:31:56.203Z,4.60
2022-08-20T23:34:27.616Z,4.80
2022-08-20T23:36:58.315Z,4.00
2022-08-20T23:39:28.395Z,4.63
2022-08-20T23:41:58.107Z,4.57
2022-08-20T23:44:28.059Z,4.68
2022-08-20T23:46:58.886Z,4.40
2022-08-20T23:49:31.552Z,4.22
2022-08-20T23:52:01.168Z,4.30
2022-08-20T23:54:31.148Z,4.25
2022-08-20T23:57:00.766Z,4.32
2022-08-20T23:59:30.397Z,4.28
